Big Bear Station Historical Data
Daily Summary for January 11, 2017 Units:  English    Metric   Both
« Previous Day
Next Day »
Daily Weekly Monthly Yearly Custom
  High: Low: Average:
Temperature: 37.4 °F 29.1 °F 33.6 °F
Dew Point: 35.6 °F 27.3 °F 31.7 °F
Humidity: 97 % 83 % 93 %
Wind Speed: 9.4 mph 0.0 mph 2.7 mph
Wind Gust: -999.0 mph - -
Wind:- - SSW
Pressure: 23.40 in 23.33 in -
Precipitation: 0.39 in    
Historical Graphs
 
 
Tabular Data for January 11, 2017
Time Temperature Dew Point Pressure Wind Wind Speed Wind Gust Humidity Rainfall Rate (Hourly)
00:05 32.7 °F 31.4 °F 23.39 in NW 3.2 mph -999.0 mph 95 % 0 in
00:20 32.7 °F 31.4 °F 23.40 in NNW 3.2 mph -999.0 mph 95 % 0 in
00:36 32.9 °F 31.9 °F 23.40 in SSW 2.7 mph -999.0 mph 96 % 0 in
00:51 32.9 °F 31.9 °F 23.40 in SSW 1.7 mph -999.0 mph 96 % 0 in
01:07 32.9 °F 31.9 °F 23.39 in Calm   -999.0 mph 96 % 0 in
01:22 32.9 °F 31.9 °F 23.40 in Calm   -999.0 mph 96 % 0 in
01:37 32.9 °F 32.1 °F 23.40 in ESE 1.1 mph -999.0 mph 97 % 0 in
01:52 33.3 °F 32.5 °F 23.40 in Calm   -999.0 mph 97 % 0 in
02:08 33.6 °F 32.8 °F 23.39 in SW 1.1 mph -999.0 mph 97 % 0 in
02:23 33.6 °F 32.8 °F 23.39 in South 1.7 mph -999.0 mph 97 % 0 in
02:38 33.6 °F 32.8 °F 23.38 in Calm   -999.0 mph 97 % 0 in
02:54 33.6 °F 32.8 °F 23.38 in Calm   -999.0 mph 97 % 0 in
03:09 34.0 °F 33.2 °F 23.37 in SSE 2.7 mph -999.0 mph 97 % 0 in
03:25 34.0 °F 33.2 °F 23.36 in SE 4.2 mph -999.0 mph 97 % 0 in
03:40 34.2 °F 33.4 °F 23.35 in SSE 3.2 mph -999.0 mph 97 % 0 in
03:55 34.2 °F 33.4 °F 23.36 in SW 1.7 mph -999.0 mph 97 % 0 in
04:11 34.2 °F 33.4 °F 23.35 in South 5.8 mph -999.0 mph 97 % 0 in
04:26 34.2 °F 33.4 °F 23.35 in NW 2.2 mph -999.0 mph 97 % 0 in
04:41 34.2 °F 33.4 °F 23.34 in WNW 1.7 mph -999.0 mph 97 % 0 in
04:56 34.0 °F 33.2 °F 23.35 in NW 3.2 mph -999.0 mph 97 % 0 in
05:12 34.0 °F 33.2 °F 23.34 in Calm   -999.0 mph 97 % 0 in
05:27 34.0 °F 33.2 °F 23.34 in SSW 1.7 mph -999.0 mph 97 % 0 in
05:44 34.0 °F 33.2 °F 23.34 in SSW 3.2 mph -999.0 mph 97 % 0 in
05:59 34.0 °F 33.2 °F 23.34 in Calm   -999.0 mph 97 % 0 in
06:16 34.0 °F 33.2 °F 23.35 in South 3.2 mph -999.0 mph 97 % 0 in
06:31 34.0 °F 33.2 °F 23.35 in SSE 1.7 mph -999.0 mph 97 % 0 in
06:46 34.0 °F 33.2 °F 23.35 in SW 1.1 mph -999.0 mph 97 % 0 in
07:03 34.0 °F 33.2 °F 23.35 in NW 2.7 mph -999.0 mph 97 % 0 in
07:18 34.0 °F 33.2 °F 23.36 in SSW 1.7 mph -999.0 mph 97 % 0 in
07:34 34.0 °F 33.2 °F 23.36 in Calm   -999.0 mph 97 % 0 in
07:51 34.3 °F 33.5 °F 23.36 in NE 1.1 mph -999.0 mph 97 % 0 in
08:09 35.1 °F 34.3 °F 23.37 in SSW 1.7 mph -999.0 mph 97 % 0 in
08:24 35.2 °F 34.4 °F 23.37 in WNW 1.7 mph -999.0 mph 97 % 0 in
08:55 35.8 °F 34.5 °F 23.38 in SSE 3.7 mph -999.0 mph 95 % 0 in
09:10 36.3 °F 35.0 °F 23.38 in SW 1.7 mph -999.0 mph 95 % 0 in
09:25 36.5 °F 34.9 °F 23.38 in South 3.2 mph -999.0 mph 94 % 0 in
09:40 36.9 °F 35.3 °F 23.40 in South 2.2 mph -999.0 mph 94 % 0 in
09:55 37.0 °F 35.4 °F 23.40 in Calm   -999.0 mph 94 % 0 in
10:11 37.4 °F 35.6 °F 23.40 in SSE 5.8 mph -999.0 mph 93 % 0 in
10:26 37.0 °F 35.2 °F 23.40 in South 5.3 mph -999.0 mph 93 % 0 in
10:41 37.4 °F 35.6 °F 23.40 in ENE 2.2 mph -999.0 mph 93 % 0 in
10:56 37.4 °F 35.6 °F 23.40 in South 2.7 mph -999.0 mph 93 % 0 in
11:12 37.2 °F 35.4 °F 23.38 in West 5.8 mph -999.0 mph 93 % 0 in
11:27 37.2 °F 34.8 °F 23.38 in ESE 4.7 mph -999.0 mph 91 % 0 in
11:42 37.0 °F 34.3 °F 23.39 in SW 2.2 mph -999.0 mph 90 % 0 in
11:57 36.0 °F 33.1 °F 23.38 in NE 3.2 mph -999.0 mph 89 % 0 in
12:13 36.0 °F 33.1 °F 23.38 in NW 5.3 mph -999.0 mph 89 % 0 in
12:28 35.8 °F 32.9 °F 23.38 in West 3.7 mph -999.0 mph 89 % 0 in
12:44 35.4 °F 32.2 °F 23.38 in ESE 4.7 mph -999.0 mph 88 % 0 in
12:59 35.2 °F 32.0 °F 23.38 in South 1.7 mph -999.0 mph 88 % 0 in
13:14 35.8 °F 31.7 °F 23.38 in NE 2.7 mph -999.0 mph 85 % 0 in
13:29 36.0 °F 32.2 °F 23.38 in WNW 4.2 mph -999.0 mph 86 % 0 in
13:44 35.4 °F 31.3 °F 23.37 in West 2.2 mph -999.0 mph 85 % 0 in
14:00 35.1 °F 31.0 °F 23.37 in SSW 2.2 mph -999.0 mph 85 % 0 in
14:15 35.2 °F 31.1 °F 23.36 in SSW 1.1 mph -999.0 mph 85 % 0 in
14:31 35.1 °F 31.0 °F 23.36 in SSE 1.1 mph -999.0 mph 85 % 0 in
14:46 34.9 °F 30.9 °F 23.35 in NNW 9.4 mph -999.0 mph 85 % 0 in
15:01 34.7 °F 30.9 °F 23.35 in WNW 2.2 mph -999.0 mph 86 % 0 in
15:17 34.5 °F 30.7 °F 23.37 in West 1.7 mph -999.0 mph 86 % 0 in
15:32 34.2 °F 30.5 °F 23.36 in WSW 2.2 mph -999.0 mph 86 % 0 in
15:47 34.3 °F 30.3 °F 23.36 in NNW 5.8 mph -999.0 mph 85 % 0 in
16:03 33.8 °F 29.2 °F 23.36 in West 1.7 mph -999.0 mph 83 % 0 in
16:33 32.5 °F 29.3 °F 23.35 in NW 4.2 mph -999.0 mph 88 % 0 in
16:48 32.2 °F 29.6 °F 23.34 in WSW 4.2 mph -999.0 mph 90 % 0 in
17:03 31.8 °F 29.2 °F 23.34 in SSE 3.2 mph -999.0 mph 90 % 0 in
17:21 31.6 °F 28.7 °F 23.33 in WNW 7.3 mph -999.0 mph 89 % 0 in
17:39 31.6 °F 29.0 °F 23.34 in NNE 2.2 mph -999.0 mph 90 % 0 in
17:54 31.5 °F 29.2 °F 23.35 in WNW 2.2 mph -999.0 mph 91 % 0 in
18:09 31.5 °F 28.9 °F 23.34 in West 5.8 mph -999.0 mph 90 % 0 in
18:26 32.0 °F 29.1 °F 23.35 in WNW 6.3 mph -999.0 mph 89 % 0 in
18:43 32.4 °F 30.1 °F 23.35 in NNE 4.2 mph -999.0 mph 91 % 0 in
19:00 32.2 °F 30.1 °F 23.35 in West 3.2 mph -999.0 mph 92 % 0 in
19:16 32.5 °F 30.7 °F 23.34 in Calm   -999.0 mph 93 % 0 in
19:31 32.2 °F 30.1 °F 23.35 in NW 3.2 mph -999.0 mph 92 % 0 in
19:49 32.2 °F 29.9 °F 23.35 in West 3.7 mph -999.0 mph 91 % 0 in
20:06 32.2 °F 30.1 °F 23.35 in West 2.2 mph -999.0 mph 92 % 0 in
20:23 32.2 °F 29.9 °F 23.35 in NW 2.7 mph -999.0 mph 91 % 0 in
20:41 31.8 °F 29.2 °F 23.35 in NW 3.2 mph -999.0 mph 90 % 0 in
20:59 31.6 °F 29.5 °F 23.35 in Calm   -999.0 mph 92 % 0 in
21:14 31.6 °F 29.8 °F 23.35 in WNW 3.2 mph -999.0 mph 93 % 0 in
21:29 30.7 °F 28.9 °F 23.35 in East 2.7 mph -999.0 mph 93 % 0 in
21:44 30.2 °F 28.4 °F 23.35 in Calm   -999.0 mph 93 % 0 in
21:59 29.8 °F 28.5 °F 23.35 in NNE 6.8 mph -999.0 mph 95 % 0 in
22:15 30.0 °F 29.0 °F 23.35 in WNW 2.7 mph -999.0 mph 96 % 0 in
22:31 29.8 °F 28.8 °F 23.35 in WNW 2.7 mph -999.0 mph 96 % 0 in
22:46 29.3 °F 28.0 °F 23.34 in NW 1.7 mph -999.0 mph 95 % 0 in
23:02 29.1 °F 27.8 °F 23.34 in NNW 2.2 mph -999.0 mph 95 % 0 in
23:17 29.1 °F 28.1 °F 23.35 in NE 1.7 mph -999.0 mph 96 % 0 in
23:32 29.3 °F 27.3 °F 23.35 in NNE 2.2 mph -999.0 mph 92 % 0 in
23:48 29.3 °F 27.5 °F 23.34 in East 2.2 mph -999.0 mph 93 % 0 in
Big Bear CA Weather
Compliments of Weather Underground - 1.5 mb